WAT5852 KJFK-KVRB
Flight info
| Callsign | WAT5852 |
|---|---|
| Flight time | N/A |
| Altitude | 34000 |
| Route | WAVEY EMJAY Q167 ZJAAY Q97 DEBRL/N0471F350 Q97 EBAYY |
| Aircraft | B738/M-SDE2E3FGHIRWXY/LB1 |
Departure
| Time | N/A |
|---|---|
| Airport | John F. Kennedy International Airport (KJFK) |
Arrival
| Time | 2026-05-08 15:40 |
|---|---|
| Airport | Vero Beach Regional Airport (KVRB) |
| Time | Latitude | Longitude | Altitude | Speed | Heading |
|---|---|---|---|---|---|
| 2026-05-08 14:54 | 32.08200 | -80.54454 | 34071 ft | 424 kts | 219° |
| 2026-05-08 14:55 | 32.03584 | -80.57351 | 34066 ft | 423 kts | 219° |
| 2026-05-08 14:55 | 31.98390 | -80.60604 | 34033 ft | 423 kts | 218° |
| 2026-05-08 14:56 | 31.93185 | -80.63861 | 34065 ft | 424 kts | 219° |
| 2026-05-08 14:56 | 31.87973 | -80.67118 | 34067 ft | 425 kts | 218° |
| 2026-05-08 14:57 | 31.82748 | -80.70379 | 34064 ft | 425 kts | 218° |
| 2026-05-08 14:57 | 31.77520 | -80.73638 | 34059 ft | 426 kts | 218° |
| 2026-05-08 14:58 | 31.72287 | -80.76895 | 34032 ft | 426 kts | 218° |
| 2026-05-08 14:58 | 31.67108 | -80.80116 | 34052 ft | 426 kts | 218° |
| 2026-05-08 14:59 | 31.61867 | -80.83370 | 34062 ft | 427 kts | 218° |
| 2026-05-08 14:59 | 31.54049 | -80.88218 | 34061 ft | 428 kts | 218° |
| 2026-05-08 15:00 | 31.48778 | -80.91480 | 34061 ft | 428 kts | 218° |
| 2026-05-08 15:00 | 31.43517 | -80.94733 | 34053 ft | 426 kts | 218° |
| 2026-05-08 15:01 | 31.38274 | -80.97973 | 34062 ft | 426 kts | 218° |
| 2026-05-08 15:01 | 31.33035 | -81.01208 | 34064 ft | 426 kts | 218° |
| 2026-05-08 15:02 | 31.27736 | -81.04347 | 34055 ft | 434 kts | 212° |
| 2026-05-08 15:02 | 31.24810 | -81.05435 | 34064 ft | 445 kts | 205° |
| 2026-05-08 15:02 | 31.21743 | -81.06147 | 34064 ft | 456 kts | 198° |
| 2026-05-08 15:03 | 31.15294 | -81.06420 | 34060 ft | 466 kts | 191° |
| 2026-05-08 15:03 | 31.08853 | -81.06469 | 34066 ft | 466 kts | 192° |
| 2026-05-08 15:04 | 31.02375 | -81.06560 | 34065 ft | 466 kts | 192° |
| 2026-05-08 15:04 | 30.95991 | -81.06689 | 34063 ft | 465 kts | 192° |
| 2026-05-08 15:05 | 30.90190 | -81.06814 | 34046 ft | 465 kts | 192° |
| 2026-05-08 15:05 | 30.84186 | -81.06942 | 34050 ft | 466 kts | 192° |
| 2026-05-08 15:06 | 30.77893 | -81.07075 | 34062 ft | 466 kts | 192° |
| 2026-05-08 15:06 | 30.71839 | -81.07203 | 34057 ft | 466 kts | 192° |
| 2026-05-08 15:07 | 30.65692 | -81.07333 | 34063 ft | 467 kts | 192° |
| 2026-05-08 15:07 | 30.59448 | -81.07515 | 34055 ft | 464 kts | 193° |
| 2026-05-08 15:08 | 30.54208 | -81.07828 | 34057 ft | 463 kts | 193° |
| 2026-05-08 15:08 | 30.46682 | -81.08329 | 34078 ft | 464 kts | 193° |
| 2026-05-08 15:09 | 30.40269 | -81.08739 | 34074 ft | 465 kts | 193° |
| 2026-05-08 15:09 | 30.33790 | -81.09129 | 34053 ft | 466 kts | 193° |
| 2026-05-08 15:10 | 30.27324 | -81.09509 | 34058 ft | 465 kts | 193° |
| 2026-05-08 15:10 | 30.20864 | -81.09891 | 34054 ft | 464 kts | 193° |
| 2026-05-08 15:11 | 30.14413 | -81.10273 | 34073 ft | 464 kts | 193° |
| 2026-05-08 15:11 | 30.07955 | -81.10657 | 34044 ft | 465 kts | 193° |
| 2026-05-08 15:12 | 30.02580 | -81.10975 | 34072 ft | 466 kts | 193° |
| 2026-05-08 15:12 | 29.96098 | -81.11358 | 34064 ft | 466 kts | 193° |
| 2026-05-08 15:13 | 29.89629 | -81.11738 | 34075 ft | 465 kts | 193° |
| 2026-05-08 15:13 | 29.83161 | -81.12120 | 34069 ft | 465 kts | 193° |
| 2026-05-08 15:14 | 29.76663 | -81.12344 | 34059 ft | 469 kts | 189° |
| 2026-05-08 15:14 | 29.70122 | -81.12326 | 34060 ft | 470 kts | 189° |
| 2026-05-08 15:15 | 29.63585 | -81.12346 | 34043 ft | 470 kts | 189° |
| 2026-05-08 15:15 | 29.57088 | -81.12403 | 34044 ft | 469 kts | 190° |
| 2026-05-08 15:16 | 29.50573 | -81.12607 | 34055 ft | 468 kts | 191° |
| 2026-05-08 15:16 | 29.44067 | -81.12877 | 34073 ft | 468 kts | 190° |
| 2026-05-08 15:17 | 29.37528 | -81.13123 | 34063 ft | 471 kts | 190° |
| 2026-05-08 15:17 | 29.30945 | -81.13133 | 34052 ft | 480 kts | 182° |
| 2026-05-08 15:18 | 29.24356 | -81.11236 | 34073 ft | 498 kts | 167° |
| 2026-05-08 15:18 | 29.17899 | -81.08301 | 34059 ft | 500 kts | 166° |
| 2026-05-08 15:19 | 29.11434 | -81.05353 | 34060 ft | 499 kts | 166° |
| 2026-05-08 15:19 | 29.04967 | -81.02478 | 34065 ft | 499 kts | 167° |
| 2026-05-08 15:20 | 29.01729 | -81.01055 | 33794 ft | 500 kts | 167° |
| 2026-05-08 15:20 | 28.98482 | -80.99631 | 33137 ft | 497 kts | 166° |
| 2026-05-08 15:20 | 28.95263 | -80.98218 | 32379 ft | 496 kts | 166° |
| 2026-05-08 15:20 | 28.92037 | -80.96803 | 31619 ft | 496 kts | 166° |
| 2026-05-08 15:21 | 28.88813 | -80.95390 | 30855 ft | 497 kts | 166° |
| 2026-05-08 15:21 | 28.85582 | -80.93974 | 30012 ft | 499 kts | 165° |
| 2026-05-08 15:21 | 28.82377 | -80.92570 | 29044 ft | 500 kts | 165° |
| 2026-05-08 15:21 | 28.79126 | -80.91146 | 28090 ft | 501 kts | 165° |
| 2026-05-08 15:22 | 28.75831 | -80.89702 | 27108 ft | 502 kts | 165° |
| 2026-05-08 15:22 | 28.72565 | -80.88273 | 26128 ft | 503 kts | 165° |
| 2026-05-08 15:22 | 28.69337 | -80.86862 | 25330 ft | 502 kts | 165° |
| 2026-05-08 15:22 | 28.66076 | -80.85488 | 24495 ft | 498 kts | 166° |
| 2026-05-08 15:23 | 28.62812 | -80.84218 | 23789 ft | 494 kts | 167° |
| 2026-05-08 15:23 | 28.59560 | -80.82999 | 22978 ft | 490 kts | 167° |
| 2026-05-08 15:23 | 28.56334 | -80.81800 | 22215 ft | 484 kts | 167° |
| 2026-05-08 15:23 | 28.53155 | -80.80611 | 21498 ft | 478 kts | 167° |
| 2026-05-08 15:24 | 28.50013 | -80.79427 | 20748 ft | 474 kts | 166° |
| 2026-05-08 15:24 | 28.46899 | -80.78245 | 20029 ft | 469 kts | 166° |
| 2026-05-08 15:24 | 28.43816 | -80.77069 | 19328 ft | 464 kts | 166° |
| 2026-05-08 15:24 | 28.40781 | -80.75909 | 18657 ft | 459 kts | 166° |
| 2026-05-08 15:25 | 28.37771 | -80.74758 | 18016 ft | 452 kts | 166° |
| 2026-05-08 15:25 | 28.34799 | -80.73622 | 17192 ft | 449 kts | 166° |
| 2026-05-08 15:25 | 28.31867 | -80.72501 | 16492 ft | 443 kts | 165° |
| 2026-05-08 15:25 | 28.28989 | -80.71404 | 15885 ft | 436 kts | 165° |
| 2026-05-08 15:26 | 28.26075 | -80.70296 | 15272 ft | 454 kts | 165° |
| 2026-05-08 15:26 | 28.23053 | -80.69151 | 15561 ft | 456 kts | 165° |
| 2026-05-08 15:26 | 28.20083 | -80.68018 | 15916 ft | 436 kts | 165° |
| 2026-05-08 15:26 | 28.17293 | -80.66946 | 15308 ft | 417 kts | 165° |
| 2026-05-08 15:27 | 28.15740 | -80.66352 | 14628 ft | 416 kts | 165° |
| 2026-05-08 15:27 | 28.12989 | -80.65308 | 13468 ft | 416 kts | 165° |
| 2026-05-08 15:27 | 28.10297 | -80.64288 | 12504 ft | 408 kts | 165° |
| 2026-05-08 15:27 | 28.07650 | -80.63284 | 11687 ft | 398 kts | 164° |
| 2026-05-08 15:28 | 28.05074 | -80.62305 | 11154 ft | 381 kts | 164° |
| 2026-05-08 15:28 | 28.02631 | -80.61377 | 10886 ft | 359 kts | 163° |
| 2026-05-08 15:28 | 28.00334 | -80.60502 | 10725 ft | 338 kts | 162° |
| 2026-05-08 15:28 | 27.98353 | -80.59331 | 10319 ft | 332 kts | 144° |
| 2026-05-08 15:29 | 27.96702 | -80.57590 | 10098 ft | 319 kts | 134° |
| 2026-05-08 15:29 | 27.95273 | -80.55753 | 9917 ft | 305 kts | 133° |
| 2026-05-08 15:29 | 27.93925 | -80.53992 | 9691 ft | 292 kts | 133° |
| 2026-05-08 15:29 | 27.92594 | -80.52256 | 9306 ft | 288 kts | 133° |
| 2026-05-08 15:30 | 27.91290 | -80.50561 | 8975 ft | 282 kts | 133° |
| 2026-05-08 15:30 | 27.90011 | -80.48905 | 8698 ft | 278 kts | 133° |
| 2026-05-08 15:30 | 27.88738 | -80.47263 | 8419 ft | 277 kts | 133° |
| 2026-05-08 15:30 | 27.87529 | -80.45707 | 8149 ft | 277 kts | 133° |
| 2026-05-08 15:31 | 27.86258 | -80.44072 | 7859 ft | 277 kts | 133° |
| 2026-05-08 15:31 | 27.84988 | -80.42441 | 7586 ft | 276 kts | 133° |
| 2026-05-08 15:31 | 27.83718 | -80.40812 | 7286 ft | 277 kts | 133° |
| 2026-05-08 15:31 | 27.82496 | -80.39246 | 7020 ft | 276 kts | 133° |
| 2026-05-08 15:32 | 27.81224 | -80.37615 | 6721 ft | 277 kts | 132° |
| 2026-05-08 15:32 | 27.79985 | -80.36027 | 6455 ft | 276 kts | 132° |
| 2026-05-08 15:32 | 27.78707 | -80.34390 | 6124 ft | 278 kts | 132° |
| 2026-05-08 15:32 | 27.77549 | -80.32908 | 5854 ft | 278 kts | 133° |
| 2026-05-08 15:33 | 27.76255 | -80.31253 | 5560 ft | 277 kts | 133° |
| 2026-05-08 15:33 | 27.74982 | -80.29624 | 5278 ft | 276 kts | 133° |
| 2026-05-08 15:33 | 27.73714 | -80.28002 | 5017 ft | 275 kts | 133° |
| 2026-05-08 15:33 | 27.72556 | -80.26521 | 4785 ft | 272 kts | 133° |
| 2026-05-08 15:34 | 27.71323 | -80.24945 | 4665 ft | 262 kts | 133° |
| 2026-05-08 15:34 | 27.70161 | -80.23460 | 4556 ft | 251 kts | 132° |
| 2026-05-08 15:34 | 27.69036 | -80.22024 | 4457 ft | 238 kts | 133° |
| 2026-05-08 15:34 | 27.68120 | -80.20858 | 4376 ft | 233 kts | 133° |
| 2026-05-08 15:35 | 27.66905 | -80.19795 | 4242 ft | 229 kts | 162° |
| 2026-05-08 15:35 | 27.65359 | -80.19697 | 4080 ft | 223 kts | 193° |
| 2026-05-08 15:35 | 27.63884 | -80.20209 | 3875 ft | 223 kts | 202° |
| 2026-05-08 15:35 | 27.62427 | -80.20839 | 3626 ft | 225 kts | 203° |
| 2026-05-08 15:36 | 27.60981 | -80.21538 | 3367 ft | 227 kts | 213° |
| 2026-05-08 15:36 | 27.59956 | -80.22842 | 3109 ft | 223 kts | 248° |
| 2026-05-08 15:36 | 27.59733 | -80.24534 | 2878 ft | 216 kts | 278° |
| 2026-05-08 15:36 | 27.60118 | -80.26128 | 2668 ft | 206 kts | 292° |
| 2026-05-08 15:37 | 27.60627 | -80.27615 | 2428 ft | 201 kts | 294° |
| 2026-05-08 15:37 | 27.61126 | -80.29066 | 2173 ft | 194 kts | 293° |
| 2026-05-08 15:37 | 27.61604 | -80.30455 | 1934 ft | 186 kts | 293° |
| 2026-05-08 15:37 | 27.62051 | -80.31773 | 1738 ft | 173 kts | 292° |
| 2026-05-08 15:38 | 27.62462 | -80.32988 | 1453 ft | 159 kts | 293° |
| 2026-05-08 15:38 | 27.62851 | -80.34130 | 1250 ft | 154 kts | 294° |
| 2026-05-08 15:38 | 27.63248 | -80.35270 | 998 ft | 157 kts | 295° |
| 2026-05-08 15:38 | 27.63668 | -80.36390 | 831 ft | 156 kts | 293° |
| 2026-05-08 15:39 | 27.64052 | -80.37578 | 738 ft | 164 kts | 289° |
| 2026-05-08 15:39 | 27.64422 | -80.38792 | 563 ft | 164 kts | 291° |
| 2026-05-08 15:39 | 27.64826 | -80.39995 | 218 ft | 163 kts | 291° |
| 2026-05-08 15:39 | 27.65200 | -80.41121 | 36 ft | 146 kts | 292° |
| 2026-05-08 15:40 | 27.65502 | -80.42013 | 34 ft | 91 kts | 291° |
| 2026-05-08 15:40 | 27.65673 | -80.42528 | 31 ft | 62 kts | 291° |
| 2026-05-08 15:40 | 27.65762 | -80.42807 | 32 ft | 15 kts | 284° |
| 2026-05-08 15:40 | 27.65717 | -80.42880 | 33 ft | 5 kts | 199° |
| 2026-05-08 15:41 | 27.65691 | -80.42901 | 33 ft | 11 kts | 230° |
| 2026-05-08 15:41 | 27.65650 | -80.42977 | 33 ft | 11 kts | 233° |
| 2026-05-08 15:41 | 27.65592 | -80.42989 | 33 ft | 9 kts | 130° |
| 2026-05-08 15:42 | 27.65596 | -80.42958 | 33 ft | 3 kts | 42° |
| 2026-05-08 15:42 | 27.65599 | -80.42956 | 33 ft | 0 kts | 23° |